หน้าหลัก
METAR-TAF:

METAR-TAF

ท่าอากาศยาน :

Ängelholm–Helsingborg

Helsingborg, สวีเดน

ละติจูด: 56-17-46N, ลองจิจูด: 012-50-50E, ความสูง: 21 ม.

การสังเกตสภาพอากาศปัจจุบัน

รายงานได้ทำขึ้นเมื่อ 24 นาทีที่แล้ว ณ เวลา 12:50 UTC
ลม 14 นอตจากตะวันออกเฉียงใต้
อุณหภูมิ 19°C
ความชื้น 49%
ความกดอากาศ 1010 hPa
ทัศนวิสัย 10 กม. หรือมากกว่า
ไม่มีเมฆต่ำกว่า 1,500 ม. และไม่มีเมฆคิวมูโลนิมบัส

METAR: ESTA 291250Z 14014KT CAVOK 19/08 Q1010

เวลา: 15:14 (13:14 UTC)

การพยากรณ์

รายงานได้ทำขึ้นเมื่อ 2 ชั่วโมงและ 13 นาทีที่แล้ว ณ เวลา 11:01 UTC
การพยากรณ์มีผลตั้งแต่วันที่ 29 ณ เวลา 12 UTC จนถึงวันที่ 29 ณ เวลา 21 UTC
ลม 15 นอตจากตะวันออกเฉียงใต้
ทัศนวิสัย 10 กม. หรือมากกว่า
มีเมฆกระจายเป็นบางส่วนที่ความสูง 2000 ฟุต
มีเมฆเป็นส่วนมากเว้นเป็นระยะที่ความสูง 4000 ฟุต
ชั่วคราว
ตั้งแต่วันที่ 29 ณ เวลา 18 UTC จนถึงวันที่ 29 ณ เวลา 21 UTC
ทัศนวิสัย: 4000 ม.
มีเมฆกระจายเป็นบางส่วนที่ความสูง 2000 ฟุต, คิวมูโลนิมบัส.
ฝนโปรยปราย,

TAF: ESTA 291101Z 2912/2921 14015KT 9999 SCT020 BKN040 TEMPO 2918/2921 4000 SHRA SCT020CB

สังเกตการณ์สภาพอากาศและพยากรณ์อากาศของสนามบินมากกว่า 4000 แห่ง (รายงาน METAR และ TAF).

สถานีที่ดูได้จะแสดงไว้ด้วยจุดสีเหลืองและสีแดงบนแผนที่.

เลื่อนเมาส์ไปเหนือจุดเพื่อดูชื่อสถานี.

แล้วคลิกเพื่อดูสังเกตการณ์และการพยากรณ์สภาพอากาศ.

ในการเปลี่ยนแผนที่: คลิกที่ปุ่มสีเขียวที่มีกากบาทสีดำเพื่อซูมเข้า; ที่ปุ่มสีเขียวที่มีขีดเพื่อซูมออก; หรือที่ลูกศรสีเขียวเพื่อไปยังแผนที่ที่อยู่ติดกัน.


METAR-TAF: